sensor_id;sensor_type;location;lat;lon;timestamp;temperature;humidity
22950;DHT22;11641;51.018;4.474;2023-03-21T00:01:29;12.20;99.90
22950;DHT22;11641;51.018;4.474;2023-03-21T00:03:59;12.10;99.90
22950;DHT22;11641;51.018;4.474;2023-03-21T00:06:25;12.10;99.90
22950;DHT22;11641;51.018;4.474;2023-03-21T00:08:53;12.20;99.90
22950;DHT22;11641;51.018;4.474;2023-03-21T00:11:19;12.20;99.90
22950;DHT22;11641;51.018;4.474;2023-03-21T00:13:46;12.10;99.90
22950;DHT22;11641;51.018;4.474;2023-03-21T00:16:15;12.20;99.90
22950;DHT22;11641;51.018;4.474;2023-03-21T00:18:42;12.20;99.90
22950;DHT22;11641;51.018;4.474;2023-03-21T00:21:16;12.10;99.90
22950;DHT22;11641;51.018;4.474;2023-03-21T00:23:45;12.20;99.90
22950;DHT22;11641;51.018;4.474;2023-03-21T00:26:13;12.20;99.90
22950;DHT22;11641;51.018;4.474;2023-03-21T00:28:41;12.30;99.90
22950;DHT22;11641;51.018;4.474;2023-03-21T00:31:08;12.30;99.90
22950;DHT22;11641;51.018;4.474;2023-03-21T00:33:34;12.20;99.90
22950;DHT22;11641;51.018;4.474;2023-03-21T00:36:03;12.20;99.90
22950;DHT22;11641;51.018;4.474;2023-03-21T00:38:30;12.30;99.90
22950;DHT22;11641;51.018;4.474;2023-03-21T00:40:56;12.30;99.90
22950;DHT22;11641;51.018;4.474;2023-03-21T00:43:22;12.30;99.90
22950;DHT22;11641;51.018;4.474;2023-03-21T00:45:56;12.30;99.90
22950;DHT22;11641;51.018;4.474;2023-03-21T00:48:23;12.10;99.90
22950;DHT22;11641;51.018;4.474;2023-03-21T00:50:54;11.90;99.90
22950;DHT22;11641;51.018;4.474;2023-03-21T00:53:20;12.10;99.90
22950;DHT22;11641;51.018;4.474;2023-03-21T00:55:47;12.00;99.90
22950;DHT22;11641;51.018;4.474;2023-03-21T00:58:13;12.10;99.90
22950;DHT22;11641;51.018;4.474;2023-03-21T01:00:39;12.20;99.90
22950;DHT22;11641;51.018;4.474;2023-03-21T01:03:10;12.20;99.90
22950;DHT22;11641;51.018;4.474;2023-03-21T01:05:40;12.10;99.90
22950;DHT22;11641;51.018;4.474;2023-03-21T01:08:25;12.20;99.90
22950;DHT22;11641;51.018;4.474;2023-03-21T01:10:55;12.00;99.90
22950;DHT22;11641;51.018;4.474;2023-03-21T01:13:23;12.00;99.90
22950;DHT22;11641;51.018;4.474;2023-03-21T01:15:54;12.00;99.90
22950;DHT22;11641;51.018;4.474;2023-03-21T01:18:24;11.90;99.90
22950;DHT22;11641;51.018;4.474;2023-03-21T01:20:53;11.90;99.90
22950;DHT22;11641;51.018;4.474;2023-03-21T01:23:19;11.80;99.90
22950;DHT22;11641;51.018;4.474;2023-03-21T01:25:49;11.90;99.90
22950;DHT22;11641;51.018;4.474;2023-03-21T01:28:19;11.80;99.90
22950;DHT22;11641;51.018;4.474;2023-03-21T01:30:47;11.70;99.90
22950;DHT22;11641;51.018;4.474;2023-03-21T01:33:13;11.70;99.90
22950;DHT22;11641;51.018;4.474;2023-03-21T01:35:40;11.80;99.90
22950;DHT22;11641;51.018;4.474;2023-03-21T01:38:06;11.70;99.90
22950;DHT22;11641;51.018;4.474;2023-03-21T01:40:32;11.80;99.90
22950;DHT22;11641;51.018;4.474;2023-03-21T01:42:57;11.80;99.90
22950;DHT22;11641;51.018;4.474;2023-03-21T01:48:28;12.00;99.90
22950;DHT22;11641;51.018;4.474;2023-03-21T01:50:54;11.90;99.90
22950;DHT22;11641;51.018;4.474;2023-03-21T01:53:25;11.80;99.90
22950;DHT22;11641;51.018;4.474;2023-03-21T01:55:56;11.80;99.90
22950;DHT22;11641;51.018;4.474;2023-03-21T01:58:26;11.90;99.90
22950;DHT22;11641;51.018;4.474;2023-03-21T02:00:53;11.90;99.90
22950;DHT22;11641;51.018;4.474;2023-03-21T02:03:21;11.90;99.90
22950;DHT22;11641;51.018;4.474;2023-03-21T02:05:55;11.90;99.90
22950;DHT22;11641;51.018;4.474;2023-03-21T02:08:27;11.90;99.90
22950;DHT22;11641;51.018;4.474;2023-03-21T02:11:03;11.90;99.90
22950;DHT22;11641;51.018;4.474;2023-03-21T02:13:29;11.90;99.90
22950;DHT22;11641;51.018;4.474;2023-03-21T02:18:56;11.90;99.90
22950;DHT22;11641;51.018;4.474;2023-03-21T02:27:20;12.00;99.90
22950;DHT22;11641;51.018;4.474;2023-03-21T02:32:36;11.90;99.90
22950;DHT22;11641;51.018;4.474;2023-03-21T02:35:21;11.90;99.90
22950;DHT22;11641;51.018;4.474;2023-03-21T02:43:12;12.00;99.90
22950;DHT22;11641;51.018;4.474;2023-03-21T02:46:02;12.00;99.90
22950;DHT22;11641;51.018;4.474;2023-03-21T02:48:34;11.90;99.90
22950;DHT22;11641;51.018;4.474;2023-03-21T02:51:02;11.90;99.90
22950;DHT22;11641;51.018;4.474;2023-03-21T02:53:33;12.00;99.90
22950;DHT22;11641;51.018;4.474;2023-03-21T02:56:02;12.00;99.90
22950;DHT22;11641;51.018;4.474;2023-03-21T02:58:33;12.10;99.90
22950;DHT22;11641;51.018;4.474;2023-03-21T03:01:00;12.10;99.90
22950;DHT22;11641;51.018;4.474;2023-03-21T03:03:26;12.10;99.90
22950;DHT22;11641;51.018;4.474;2023-03-21T03:05:56;12.20;99.90
22950;DHT22;11641;51.018;4.474;2023-03-21T03:08:42;12.10;99.90
22950;DHT22;11641;51.018;4.474;2023-03-21T03:11:33;12.20;99.90
22950;DHT22;11641;51.018;4.474;2023-03-21T03:14:13;12.10;99.90
22950;DHT22;11641;51.018;4.474;2023-03-21T03:19:27;12.20;99.90
22950;DHT22;11641;51.018;4.474;2023-03-21T03:24:57;12.20;99.90
22950;DHT22;11641;51.018;4.474;2023-03-21T03:27:31;12.20;99.90
22950;DHT22;11641;51.018;4.474;2023-03-21T03:30:00;12.20;99.90
22950;DHT22;11641;51.018;4.474;2023-03-21T03:32:47;12.20;99.90
22950;DHT22;11641;51.018;4.474;2023-03-21T03:35:16;12.20;99.90
22950;DHT22;11641;51.018;4.474;2023-03-21T03:37:48;12.20;99.90
22950;DHT22;11641;51.018;4.474;2023-03-21T03:43:03;12.20;99.90
22950;DHT22;11641;51.018;4.474;2023-03-21T03:45:41;12.20;99.90
22950;DHT22;11641;51.018;4.474;2023-03-21T03:51:06;12.20;99.90
22950;DHT22;11641;51.018;4.474;2023-03-21T03:53:43;12.30;99.90
22950;DHT22;11641;51.018;4.474;2023-03-21T03:56:10;12.30;99.90
22950;DHT22;11641;51.018;4.474;2023-03-21T03:58:40;12.20;99.90
22950;DHT22;11641;51.018;4.474;2023-03-21T04:01:07;12.20;99.90
22950;DHT22;11641;51.018;4.474;2023-03-21T04:03:39;12.20;99.90
22950;DHT22;11641;51.018;4.474;2023-03-21T04:06:06;12.20;99.90
22950;DHT22;11641;51.018;4.474;2023-03-21T04:08:32;12.20;99.90
22950;DHT22;11641;51.018;4.474;2023-03-21T04:10:57;12.30;99.90
22950;DHT22;11641;51.018;4.474;2023-03-21T04:13:24;12.30;99.90
22950;DHT22;11641;51.018;4.474;2023-03-21T04:15:50;12.30;99.90
22950;DHT22;11641;51.018;4.474;2023-03-21T04:18:15;12.30;99.90
22950;DHT22;11641;51.018;4.474;2023-03-21T04:20:44;12.30;99.90
22950;DHT22;11641;51.018;4.474;2023-03-21T04:23:10;12.30;99.90
22950;DHT22;11641;51.018;4.474;2023-03-21T04:25:37;12.30;99.90
22950;DHT22;11641;51.018;4.474;2023-03-21T04:28:03;12.30;99.90
22950;DHT22;11641;51.018;4.474;2023-03-21T04:30:32;12.30;99.90
22950;DHT22;11641;51.018;4.474;2023-03-21T04:32:59;12.30;99.90
22950;DHT22;11641;51.018;4.474;2023-03-21T04:35:27;12.30;99.90
22950;DHT22;11641;51.018;4.474;2023-03-21T04:37:54;12.30;99.90
22950;DHT22;11641;51.018;4.474;2023-03-21T04:40:23;12.30;99.90
22950;DHT22;11641;51.018;4.474;2023-03-21T04:42:50;12.30;99.90
22950;DHT22;11641;51.018;4.474;2023-03-21T04:45:16;12.40;99.90
22950;DHT22;11641;51.018;4.474;2023-03-21T04:47:42;12.40;99.90
22950;DHT22;11641;51.018;4.474;2023-03-21T04:50:09;12.40;99.90
22950;DHT22;11641;51.018;4.474;2023-03-21T04:52:35;12.40;99.90
22950;DHT22;11641;51.018;4.474;2023-03-21T04:55:01;12.40;99.90
22950;DHT22;11641;51.018;4.474;2023-03-21T04:57:27;12.40;99.90
22950;DHT22;11641;51.018;4.474;2023-03-21T04:59:53;12.40;99.90
22950;DHT22;11641;51.018;4.474;2023-03-21T05:02:19;12.30;99.90
22950;DHT22;11641;51.018;4.474;2023-03-21T05:04:45;12.30;99.90
22950;DHT22;11641;51.018;4.474;2023-03-21T05:07:11;12.40;99.90
22950;DHT22;11641;51.018;4.474;2023-03-21T05:09:37;12.40;99.90
22950;DHT22;11641;51.018;4.474;2023-03-21T05:12:08;12.40;99.90
22950;DHT22;11641;51.018;4.474;2023-03-21T05:14:34;12.40;99.90
22950;DHT22;11641;51.018;4.474;2023-03-21T05:17:02;12.40;99.90
22950;DHT22;11641;51.018;4.474;2023-03-21T05:19:31;12.40;99.90
22950;DHT22;11641;51.018;4.474;2023-03-21T05:22:08;12.40;99.90
22950;DHT22;11641;51.018;4.474;2023-03-21T05:24:34;12.40;99.90
22950;DHT22;11641;51.018;4.474;2023-03-21T05:27:04;12.40;99.90
22950;DHT22;11641;51.018;4.474;2023-03-21T05:29:32;12.40;99.90
22950;DHT22;11641;51.018;4.474;2023-03-21T05:31:58;12.40;99.90
22950;DHT22;11641;51.018;4.474;2023-03-21T05:34:25;12.30;99.90
22950;DHT22;11641;51.018;4.474;2023-03-21T05:36:52;12.30;99.90
22950;DHT22;11641;51.018;4.474;2023-03-21T05:39:19;12.40;99.90
22950;DHT22;11641;51.018;4.474;2023-03-21T05:41:46;12.40;99.90
22950;DHT22;11641;51.018;4.474;2023-03-21T05:44:12;12.50;99.90
22950;DHT22;11641;51.018;4.474;2023-03-21T05:46:38;12.50;99.90
22950;DHT22;11641;51.018;4.474;2023-03-21T05:49:03;12.50;99.90
22950;DHT22;11641;51.018;4.474;2023-03-21T05:51:29;12.50;99.90
22950;DHT22;11641;51.018;4.474;2023-03-21T05:53:55;12.40;99.90
22950;DHT22;11641;51.018;4.474;2023-03-21T05:56:21;12.40;99.90
22950;DHT22;11641;51.018;4.474;2023-03-21T05:58:47;12.40;99.90
22950;DHT22;11641;51.018;4.474;2023-03-21T06:01:13;12.40;99.90
22950;DHT22;11641;51.018;4.474;2023-03-21T06:03:42;12.50;99.90
22950;DHT22;11641;51.018;4.474;2023-03-21T06:06:08;12.40;99.90
22950;DHT22;11641;51.018;4.474;2023-03-21T06:08:34;12.40;99.90
22950;DHT22;11641;51.018;4.474;2023-03-21T06:11:01;12.30;99.90
22950;DHT22;11641;51.018;4.474;2023-03-21T06:13:28;11.90;99.90
22950;DHT22;11641;51.018;4.474;2023-03-21T06:15:58;11.70;99.90
22950;DHT22;11641;51.018;4.474;2023-03-21T06:18:34;11.40;99.90
22950;DHT22;11641;51.018;4.474;2023-03-21T06:21:00;11.50;99.90
22950;DHT22;11641;51.018;4.474;2023-03-21T06:23:33;11.50;99.90
22950;DHT22;11641;51.018;4.474;2023-03-21T06:26:04;11.40;99.90
22950;DHT22;11641;51.018;4.474;2023-03-21T06:28:36;11.40;99.90
22950;DHT22;11641;51.018;4.474;2023-03-21T06:31:02;11.40;99.90
22950;DHT22;11641;51.018;4.474;2023-03-21T06:33:33;11.40;99.90
22950;DHT22;11641;51.018;4.474;2023-03-21T06:35:59;11.50;99.90
22950;DHT22;11641;51.018;4.474;2023-03-21T06:38:25;11.50;99.90
22950;DHT22;11641;51.018;4.474;2023-03-21T06:40:51;11.50;99.90
22950;DHT22;11641;51.018;4.474;2023-03-21T06:43:20;11.50;99.90
22950;DHT22;11641;51.018;4.474;2023-03-21T06:45:49;11.40;99.90
22950;DHT22;11641;51.018;4.474;2023-03-21T06:48:15;11.40;99.90
22950;DHT22;11641;51.018;4.474;2023-03-21T06:50:41;11.40;99.90
22950;DHT22;11641;51.018;4.474;2023-03-21T06:53:07;11.50;99.90
22950;DHT22;11641;51.018;4.474;2023-03-21T06:55:32;11.50;99.90
22950;DHT22;11641;51.018;4.474;2023-03-21T06:57:58;11.50;99.90
22950;DHT22;11641;51.018;4.474;2023-03-21T07:00:24;11.60;99.90
22950;DHT22;11641;51.018;4.474;2023-03-21T07:02:50;11.60;99.90
22950;DHT22;11641;51.018;4.474;2023-03-21T07:05:16;11.60;99.90
22950;DHT22;11641;51.018;4.474;2023-03-21T07:07:45;11.70;99.90
22950;DHT22;11641;51.018;4.474;2023-03-21T07:10:15;11.70;99.90
22950;DHT22;11641;51.018;4.474;2023-03-21T07:12:41;11.80;99.90
22950;DHT22;11641;51.018;4.474;2023-03-21T07:15:10;11.80;99.90
22950;DHT22;11641;51.018;4.474;2023-03-21T07:17:36;11.80;99.90
22950;DHT22;11641;51.018;4.474;2023-03-21T07:20:03;11.90;99.90
22950;DHT22;11641;51.018;4.474;2023-03-21T07:22:34;12.00;99.90
22950;DHT22;11641;51.018;4.474;2023-03-21T07:25:03;12.00;99.90
22950;DHT22;11641;51.018;4.474;2023-03-21T07:27:29;12.00;99.90
22950;DHT22;11641;51.018;4.474;2023-03-21T07:29:55;12.10;99.90
22950;DHT22;11641;51.018;4.474;2023-03-21T07:32:20;12.10;99.90
22950;DHT22;11641;51.018;4.474;2023-03-21T07:34:49;12.20;99.90
22950;DHT22;11641;51.018;4.474;2023-03-21T07:37:15;12.30;99.90
22950;DHT22;11641;51.018;4.474;2023-03-21T07:39:41;12.50;99.90
22950;DHT22;11641;51.018;4.474;2023-03-21T07:42:08;12.50;99.90
22950;DHT22;11641;51.018;4.474;2023-03-21T07:44:36;12.70;99.90
22950;DHT22;11641;51.018;4.474;2023-03-21T07:47:03;12.80;99.90
22950;DHT22;11641;51.018;4.474;2023-03-21T07:49:31;12.80;99.90
22950;DHT22;11641;51.018;4.474;2023-03-21T07:51:57;13.00;99.90
22950;DHT22;11641;51.018;4.474;2023-03-21T07:54:24;13.00;99.90
22950;DHT22;11641;51.018;4.474;2023-03-21T07:56:50;13.10;99.90
22950;DHT22;11641;51.018;4.474;2023-03-21T07:59:16;13.30;99.90
22950;DHT22;11641;51.018;4.474;2023-03-21T08:01:42;13.30;99.90
22950;DHT22;11641;51.018;4.474;2023-03-21T08:04:08;13.20;99.90
22950;DHT22;11641;51.018;4.474;2023-03-21T08:06:34;13.20;99.90
22950;DHT22;11641;51.018;4.474;2023-03-21T08:09:00;13.20;99.90
22950;DHT22;11641;51.018;4.474;2023-03-21T08:11:27;13.00;99.90
22950;DHT22;11641;51.018;4.474;2023-03-21T08:13:59;13.00;99.90
22950;DHT22;11641;51.018;4.474;2023-03-21T08:16:26;13.00;99.90
22950;DHT22;11641;51.018;4.474;2023-03-21T08:18:52;13.10;99.90
22950;DHT22;11641;51.018;4.474;2023-03-21T08:21:18;13.10;99.90
22950;DHT22;11641;51.018;4.474;2023-03-21T08:23:44;13.10;99.90
22950;DHT22;11641;51.018;4.474;2023-03-21T08:26:09;13.20;99.90
22950;DHT22;11641;51.018;4.474;2023-03-21T08:28:36;13.30;99.90
22950;DHT22;11641;51.018;4.474;2023-03-21T08:31:08;13.30;99.90
22950;DHT22;11641;51.018;4.474;2023-03-21T08:33:34;13.50;99.90
22950;DHT22;11641;51.018;4.474;2023-03-21T08:36:00;13.60;99.90
22950;DHT22;11641;51.018;4.474;2023-03-21T08:38:26;13.70;99.90
22950;DHT22;11641;51.018;4.474;2023-03-21T08:40:58;13.80;99.90
22950;DHT22;11641;51.018;4.474;2023-03-21T08:43:27;14.00;99.90
22950;DHT22;11641;51.018;4.474;2023-03-21T08:45:54;14.20;99.90
22950;DHT22;11641;51.018;4.474;2023-03-21T08:48:21;14.30;99.90
22950;DHT22;11641;51.018;4.474;2023-03-21T08:50:46;14.40;99.90
22950;DHT22;11641;51.018;4.474;2023-03-21T08:53:12;14.60;99.90
22950;DHT22;11641;51.018;4.474;2023-03-21T08:55:38;14.60;99.90
22950;DHT22;11641;51.018;4.474;2023-03-21T08:58:08;14.60;99.90
22950;DHT22;11641;51.018;4.474;2023-03-21T09:00:34;14.70;99.90
22950;DHT22;11641;51.018;4.474;2023-03-21T09:02:59;14.70;99.90
22950;DHT22;11641;51.018;4.474;2023-03-21T09:05:25;15.00;99.90
22950;DHT22;11641;51.018;4.474;2023-03-21T09:07:53;15.10;99.90
22950;DHT22;11641;51.018;4.474;2023-03-21T09:10:21;15.40;99.90
22950;DHT22;11641;51.018;4.474;2023-03-21T09:12:48;15.50;99.90
22950;DHT22;11641;51.018;4.474;2023-03-21T09:15:14;15.60;99.90
22950;DHT22;11641;51.018;4.474;2023-03-21T09:17:40;15.70;99.90
22950;DHT22;11641;51.018;4.474;2023-03-21T09:20:14;15.70;99.90
22950;DHT22;11641;51.018;4.474;2023-03-21T09:22:52;15.80;99.90
22950;DHT22;11641;51.018;4.474;2023-03-21T09:25:18;15.90;99.90
22950;DHT22;11641;51.018;4.474;2023-03-21T09:27:45;15.80;99.90
22950;DHT22;11641;51.018;4.474;2023-03-21T09:30:14;15.70;99.90
22950;DHT22;11641;51.018;4.474;2023-03-21T09:32:41;15.80;99.90
22950;DHT22;11641;51.018;4.474;2023-03-21T09:35:07;15.70;99.90
22950;DHT22;11641;51.018;4.474;2023-03-21T09:37:33;15.40;99.90
22950;DHT22;11641;51.018;4.474;2023-03-21T09:40:03;15.30;99.90
22950;DHT22;11641;51.018;4.474;2023-03-21T09:43:19;15.40;99.90
22950;DHT22;11641;51.018;4.474;2023-03-21T09:45:57;15.40;99.90
22950;DHT22;11641;51.018;4.474;2023-03-21T09:51:16;15.50;99.90
22950;DHT22;11641;51.018;4.474;2023-03-21T09:53:46;15.50;99.90
22950;DHT22;11641;51.018;4.474;2023-03-21T09:56:17;15.10;99.90
22950;DHT22;11641;51.018;4.474;2023-03-21T09:58:49;15.20;99.90
22950;DHT22;11641;51.018;4.474;2023-03-21T10:04:05;15.20;99.90
22950;DHT22;11641;51.018;4.474;2023-03-21T10:06:34;15.00;99.90
22950;DHT22;11641;51.018;4.474;2023-03-21T10:09:16;14.60;99.90
22950;DHT22;11641;51.018;4.474;2023-03-21T10:12:21;14.40;99.90
22950;DHT22;11641;51.018;4.474;2023-03-21T10:14:50;14.50;99.90
22950;DHT22;11641;51.018;4.474;2023-03-21T10:17:33;14.60;99.90
22950;DHT22;11641;51.018;4.474;2023-03-21T10:22:51;15.30;99.90
22950;DHT22;11641;51.018;4.474;2023-03-21T10:27:57;15.80;99.90
22950;DHT22;11641;51.018;4.474;2023-03-21T10:30:52;16.20;99.90
22950;DHT22;11641;51.018;4.474;2023-03-21T10:33:19;16.50;99.90
22950;DHT22;11641;51.018;4.474;2023-03-21T10:35:57;16.20;99.90
22950;DHT22;11641;51.018;4.474;2023-03-21T10:38:25;15.80;99.90
22950;DHT22;11641;51.018;4.474;2023-03-21T10:40:52;15.70;99.90
22950;DHT22;11641;51.018;4.474;2023-03-21T10:43:33;15.80;99.90
22950;DHT22;11641;51.018;4.474;2023-03-21T10:48:38;16.60;99.90
22950;DHT22;11641;51.018;4.474;2023-03-21T10:51:07;17.00;99.90
22950;DHT22;11641;51.018;4.474;2023-03-21T10:53:49;16.80;99.90
22950;DHT22;11641;51.018;4.474;2023-03-21T10:56:16;16.80;99.90
22950;DHT22;11641;51.018;4.474;2023-03-21T10:58:44;17.10;99.90
22950;DHT22;11641;51.018;4.474;2023-03-21T11:01:21;16.90;99.90
22950;DHT22;11641;51.018;4.474;2023-03-21T11:04:16;16.60;99.90
22950;DHT22;11641;51.018;4.474;2023-03-21T11:06:44;16.40;99.90
22950;DHT22;11641;51.018;4.474;2023-03-21T11:09:16;16.40;99.90
22950;DHT22;11641;51.018;4.474;2023-03-21T11:14:41;16.90;99.90
22950;DHT22;11641;51.018;4.474;2023-03-21T11:19:56;18.00;99.90
22950;DHT22;11641;51.018;4.474;2023-03-21T11:22:28;18.50;99.90
22950;DHT22;11641;51.018;4.474;2023-03-21T11:25:00;18.10;99.90
22950;DHT22;11641;51.018;4.474;2023-03-21T11:27:30;18.50;99.90
22950;DHT22;11641;51.018;4.474;2023-03-21T11:30:01;17.60;99.90
22950;DHT22;11641;51.018;4.474;2023-03-21T11:32:32;17.40;99.90
22950;DHT22;11641;51.018;4.474;2023-03-21T11:35:32;17.80;99.90
22950;DHT22;11641;51.018;4.474;2023-03-21T11:37:58;17.80;99.90
22950;DHT22;11641;51.018;4.474;2023-03-21T11:40:36;18.20;99.90
22950;DHT22;11641;51.018;4.474;2023-03-21T11:43:26;20.80;99.90
22950;DHT22;11641;51.018;4.474;2023-03-21T11:48:50;23.80;97.10
22950;DHT22;11641;51.018;4.474;2023-03-21T11:54:18;22.60;97.40
22950;DHT22;11641;51.018;4.474;2023-03-21T11:56:48;23.40;97.20
22950;DHT22;11641;51.018;4.474;2023-03-21T12:02:25;23.30;96.00
22950;DHT22;11641;51.018;4.474;2023-03-21T12:05:04;24.90;94.10
22950;DHT22;11641;51.018;4.474;2023-03-21T12:07:44;26.30;88.60
22950;DHT22;11641;51.018;4.474;2023-03-21T12:10:45;25.80;86.80
22950;DHT22;11641;51.018;4.474;2023-03-21T12:13:19;24.50;88.90
22950;DHT22;11641;51.018;4.474;2023-03-21T12:21:19;20.90;98.50
22950;DHT22;11641;51.018;4.474;2023-03-21T12:32:09;18.10;99.90
22950;DHT22;11641;51.018;4.474;2023-03-21T12:40:16;17.80;99.90
22950;DHT22;11641;51.018;4.474;2023-03-21T12:43:34;18.20;99.90
22950;DHT22;11641;51.018;4.474;2023-03-21T12:45:44;18.50;99.90
22950;DHT22;11641;51.018;4.474;2023-03-21T12:48:25;19.40;99.90
22950;DHT22;11641;51.018;4.474;2023-03-21T12:50:53;20.10;99.90
22950;DHT22;11641;51.018;4.474;2023-03-21T12:55:49;20.10;99.90
22950;DHT22;11641;51.018;4.474;2023-03-21T12:58:21;20.00;99.90
22950;DHT22;11641;51.018;4.474;2023-03-21T13:00:57;19.90;99.90
22950;DHT22;11641;51.018;4.474;2023-03-21T13:03:38;20.30;99.90
22950;DHT22;11641;51.018;4.474;2023-03-21T13:06:12;20.80;99.90
22950;DHT22;11641;51.018;4.474;2023-03-21T13:09:05;19.80;99.90
22950;DHT22;11641;51.018;4.474;2023-03-21T13:11:33;19.40;99.90
22950;DHT22;11641;51.018;4.474;2023-03-21T13:17:02;20.10;99.90
22950;DHT22;11641;51.018;4.474;2023-03-21T13:19:39;19.90;99.90
22950;DHT22;11641;51.018;4.474;2023-03-21T13:22:28;19.20;99.90
22950;DHT22;11641;51.018;4.474;2023-03-21T13:25:02;19.00;99.90
22950;DHT22;11641;51.018;4.474;2023-03-21T13:27:31;18.20;99.90
22950;DHT22;11641;51.018;4.474;2023-03-21T13:30:23;18.30;99.90
22950;DHT22;11641;51.018;4.474;2023-03-21T13:33:08;18.80;99.90
22950;DHT22;11641;51.018;4.474;2023-03-21T13:35:37;18.70;99.90
22950;DHT22;11641;51.018;4.474;2023-03-21T13:38:27;18.70;99.90
22950;DHT22;11641;51.018;4.474;2023-03-21T13:41:16;18.80;99.90
22950;DHT22;11641;51.018;4.474;2023-03-21T13:43:54;18.40;99.90
22950;DHT22;11641;51.018;4.474;2023-03-21T13:56:54;18.20;99.90
22950;DHT22;11641;51.018;4.474;2023-03-21T14:04:41;17.00;99.90
22950;DHT22;11641;51.018;4.474;2023-03-21T14:07:11;16.80;99.90
22950;DHT22;11641;51.018;4.474;2023-03-21T14:09:51;16.40;99.90
22950;DHT22;11641;51.018;4.474;2023-03-21T14:12:23;16.20;99.90
22950;DHT22;11641;51.018;4.474;2023-03-21T14:17:52;16.40;99.90
22950;DHT22;11641;51.018;4.474;2023-03-21T14:20:28;16.30;99.90
22950;DHT22;11641;51.018;4.474;2023-03-21T14:22:54;16.30;99.90
22950;DHT22;11641;51.018;4.474;2023-03-21T14:25:22;16.00;99.90
22950;DHT22;11641;51.018;4.474;2023-03-21T14:27:54;16.00;99.90
22950;DHT22;11641;51.018;4.474;2023-03-21T14:30:34;16.00;99.90
22950;DHT22;11641;51.018;4.474;2023-03-21T14:35:57;16.00;99.90
22950;DHT22;11641;51.018;4.474;2023-03-21T14:38:27;16.00;99.90
22950;DHT22;11641;51.018;4.474;2023-03-21T14:40:57;15.90;99.90
22950;DHT22;11641;51.018;4.474;2023-03-21T14:43:24;16.20;99.90
22950;DHT22;11641;51.018;4.474;2023-03-21T14:45:52;16.20;99.90
22950;DHT22;11641;51.018;4.474;2023-03-21T14:48:19;16.20;99.90
22950;DHT22;11641;51.018;4.474;2023-03-21T14:50:51;16.50;99.90
22950;DHT22;11641;51.018;4.474;2023-03-21T14:53:26;16.70;99.90
22950;DHT22;11641;51.018;4.474;2023-03-21T14:56:02;16.50;99.90
22950;DHT22;11641;51.018;4.474;2023-03-21T14:58:31;16.30;99.90
22950;DHT22;11641;51.018;4.474;2023-03-21T15:01:03;16.30;99.90
22950;DHT22;11641;51.018;4.474;2023-03-21T15:03:30;16.00;99.90
22950;DHT22;11641;51.018;4.474;2023-03-21T15:05:57;15.60;99.90
22950;DHT22;11641;51.018;4.474;2023-03-21T15:08:25;15.80;99.90
22950;DHT22;11641;51.018;4.474;2023-03-21T15:10:57;16.20;99.90
22950;DHT22;11641;51.018;4.474;2023-03-21T15:13:46;16.10;99.90
22950;DHT22;11641;51.018;4.474;2023-03-21T15:16:17;16.10;99.90
22950;DHT22;11641;51.018;4.474;2023-03-21T15:18:44;16.10;99.90
22950;DHT22;11641;51.018;4.474;2023-03-21T15:21:18;16.10;99.90
22950;DHT22;11641;51.018;4.474;2023-03-21T15:24:12;16.40;99.90
22950;DHT22;11641;51.018;4.474;2023-03-21T15:26:43;16.40;99.90
22950;DHT22;11641;51.018;4.474;2023-03-21T15:29:12;17.00;99.90
22950;DHT22;11641;51.018;4.474;2023-03-21T15:31:39;17.50;99.90
22950;DHT22;11641;51.018;4.474;2023-03-21T15:34:22;17.20;99.90
22950;DHT22;11641;51.018;4.474;2023-03-21T15:36:53;16.80;99.90
22950;DHT22;11641;51.018;4.474;2023-03-21T15:39:19;16.10;99.90
22950;DHT22;11641;51.018;4.474;2023-03-21T15:42:04;15.80;99.90
22950;DHT22;11641;51.018;4.474;2023-03-21T15:44:34;15.50;99.90
22950;DHT22;11641;51.018;4.474;2023-03-21T15:47:00;15.20;99.90
22950;DHT22;11641;51.018;4.474;2023-03-21T15:49:31;15.00;99.90
22950;DHT22;11641;51.018;4.474;2023-03-21T15:51:59;15.00;99.90
22950;DHT22;11641;51.018;4.474;2023-03-21T15:54:49;15.00;99.90
22950;DHT22;11641;51.018;4.474;2023-03-21T15:57:24;14.90;99.90
22950;DHT22;11641;51.018;4.474;2023-03-21T15:59:55;14.90;99.90
22950;DHT22;11641;51.018;4.474;2023-03-21T16:02:29;14.80;99.90
22950;DHT22;11641;51.018;4.474;2023-03-21T16:07:27;14.50;99.90
22950;DHT22;11641;51.018;4.474;2023-03-21T16:10:03;14.70;99.90
22950;DHT22;11641;51.018;4.474;2023-03-21T16:12:29;14.80;99.90
22950;DHT22;11641;51.018;4.474;2023-03-21T16:14:55;14.70;99.90
22950;DHT22;11641;51.018;4.474;2023-03-21T16:17:34;14.70;99.90
22950;DHT22;11641;51.018;4.474;2023-03-21T16:20:17;14.60;99.90
22950;DHT22;11641;51.018;4.474;2023-03-21T16:22:45;14.70;99.90
22950;DHT22;11641;51.018;4.474;2023-03-21T16:25:14;14.50;99.90
22950;DHT22;11641;51.018;4.474;2023-03-21T16:27:41;14.70;99.90
22950;DHT22;11641;51.018;4.474;2023-03-21T16:30:11;14.60;99.90
22950;DHT22;11641;51.018;4.474;2023-03-21T16:32:38;15.50;99.90
22950;DHT22;11641;51.018;4.474;2023-03-21T16:35:04;17.70;99.90
22950;DHT22;11641;51.018;4.474;2023-03-21T16:37:29;19.80;99.90
22950;DHT22;11641;51.018;4.474;2023-03-21T16:39:55;21.90;99.90
22950;DHT22;11641;51.018;4.474;2023-03-21T16:42:21;22.40;99.90
22950;DHT22;11641;51.018;4.474;2023-03-21T16:44:51;23.20;99.90
22950;DHT22;11641;51.018;4.474;2023-03-21T16:47:19;22.70;99.90
22950;DHT22;11641;51.018;4.474;2023-03-21T16:49:46;21.30;99.90
22950;DHT22;11641;51.018;4.474;2023-03-21T16:52:13;20.00;99.90
22950;DHT22;11641;51.018;4.474;2023-03-21T16:54:40;18.80;99.90
22950;DHT22;11641;51.018;4.474;2023-03-21T16:57:24;18.10;99.90
22950;DHT22;11641;51.018;4.474;2023-03-21T16:59:54;17.40;99.90
22950;DHT22;11641;51.018;4.474;2023-03-21T17:02:21;16.70;99.90
22950;DHT22;11641;51.018;4.474;2023-03-21T17:05:16;16.40;99.90
22950;DHT22;11641;51.018;4.474;2023-03-21T17:07:45;15.80;99.90
22950;DHT22;11641;51.018;4.474;2023-03-21T17:10:26;15.60;99.90
22950;DHT22;11641;51.018;4.474;2023-03-21T17:12:52;15.30;99.90
22950;DHT22;11641;51.018;4.474;2023-03-21T17:15:20;15.10;99.90
22950;DHT22;11641;51.018;4.474;2023-03-21T17:17:47;15.00;99.90
22950;DHT22;11641;51.018;4.474;2023-03-21T17:20:34;14.90;99.90
22950;DHT22;11641;51.018;4.474;2023-03-21T17:23:01;15.00;99.90
22950;DHT22;11641;51.018;4.474;2023-03-21T17:25:27;15.00;99.90
22950;DHT22;11641;51.018;4.474;2023-03-21T17:27:53;15.10;99.90
22950;DHT22;11641;51.018;4.474;2023-03-21T17:30:25;15.00;99.90
22950;DHT22;11641;51.018;4.474;2023-03-21T17:32:52;15.10;99.90
22950;DHT22;11641;51.018;4.474;2023-03-21T17:35:19;14.90;99.90
22950;DHT22;11641;51.018;4.474;2023-03-21T17:37:45;14.90;99.90
22950;DHT22;11641;51.018;4.474;2023-03-21T17:40:22;14.80;99.90